sensor_id;sensor_type;location;lat;lon;timestamp;pressure;altitude;pressure_sealevel;temperature;humidity
26043;BME280;13818;52.156;5.382;2023-07-16T00:01:21;100498.91;;;18.90;100.00
26043;BME280;13818;52.156;5.382;2023-07-16T00:03:47;100510.81;;;18.87;100.00
26043;BME280;13818;52.156;5.382;2023-07-16T00:06:15;100514.91;;;18.81;100.00
26043;BME280;13818;52.156;5.382;2023-07-16T00:08:42;100511.63;;;18.78;100.00
26043;BME280;13818;52.156;5.382;2023-07-16T00:11:08;100511.63;;;18.78;100.00
26043;BME280;13818;52.156;5.382;2023-07-16T00:13:34;100513.34;;;18.79;100.00
26043;BME280;13818;52.156;5.382;2023-07-16T00:16:01;100508.78;;;18.79;100.00
26043;BME280;13818;52.156;5.382;2023-07-16T00:18:28;100505.50;;;18.76;100.00
26043;BME280;13818;52.156;5.382;2023-07-16T00:20:54;100505.50;;;18.76;100.00
26043;BME280;13818;52.156;5.382;2023-07-16T00:23:22;100502.41;;;18.80;100.00
26043;BME280;13818;52.156;5.382;2023-07-16T00:25:48;100501.81;;;18.77;100.00
26043;BME280;13818;52.156;5.382;2023-07-16T00:28:15;100502.78;;;18.76;100.00
26043;BME280;13818;52.156;5.382;2023-07-16T00:30:41;100506.69;;;18.83;100.00
26043;BME280;13818;52.156;5.382;2023-07-16T00:33:08;100500.69;;;18.79;100.00
26043;BME280;13818;52.156;5.382;2023-07-16T00:35:34;100502.41;;;18.80;100.00
26043;BME280;13818;52.156;5.382;2023-07-16T00:38:01;100506.69;;;18.83;100.00
26043;BME280;13818;52.156;5.382;2023-07-16T00:40:28;100512.22;;;18.81;100.00
26043;BME280;13818;52.156;5.382;2023-07-16T00:42:55;100514.03;;;18.81;100.00
26043;BME280;13818;52.156;5.382;2023-07-16T00:45:21;100515.16;;;18.78;100.00
26043;BME280;13818;52.156;5.382;2023-07-16T00:47:48;100517.75;;;18.80;100.00
26043;BME280;13818;52.156;5.382;2023-07-16T00:50:14;100517.03;;;18.78;100.00
26043;BME280;13818;52.156;5.382;2023-07-16T00:52:41;100529.91;;;18.74;100.00
26043;BME280;13818;52.156;5.382;2023-07-16T00:55:09;100528.06;;;18.75;100.00
26043;BME280;13818;52.156;5.382;2023-07-16T00:57:38;100532.94;;;18.81;100.00
26043;BME280;13818;52.156;5.382;2023-07-16T01:00:05;100518.88;;;18.77;100.00
26043;BME280;13818;52.156;5.382;2023-07-16T01:02:32;100532.53;;;18.64;100.00
26043;BME280;13818;52.156;5.382;2023-07-16T01:04:59;100528.72;;;18.67;100.00
26043;BME280;13818;52.156;5.382;2023-07-16T01:07:27;100526.09;;;18.77;100.00
26043;BME280;13818;52.156;5.382;2023-07-16T01:09:56;100527.59;;;18.69;100.00
26043;BME280;13818;52.156;5.382;2023-07-16T01:12:22;100521.75;;;18.64;100.00
26043;BME280;13818;52.156;5.382;2023-07-16T01:14:51;100528.53;;;18.59;100.00
26043;BME280;13818;52.156;5.382;2023-07-16T01:17:18;100518.88;;;18.56;100.00
26043;BME280;13818;52.156;5.382;2023-07-16T01:19:45;100520.09;;;18.52;100.00
26043;BME280;13818;52.156;5.382;2023-07-16T01:22:26;100519.56;;;18.58;100.00
26043;BME280;13818;52.156;5.382;2023-07-16T01:25:05;100516.88;;;18.58;100.00
26043;BME280;13818;52.156;5.382;2023-07-16T01:28:05;100519.00;;;18.54;100.00
26043;BME280;13818;52.156;5.382;2023-07-16T01:30:37;100517.28;;;18.53;100.00
26043;BME280;13818;52.156;5.382;2023-07-16T01:33:06;100513.53;;;18.45;100.00
26043;BME280;13818;52.156;5.382;2023-07-16T01:35:42;100518.06;;;18.44;100.00
26043;BME280;13818;52.156;5.382;2023-07-16T01:38:11;100517.84;;;18.36;100.00
26043;BME280;13818;52.156;5.382;2023-07-16T01:40:39;100520.28;;;18.39;100.00
26043;BME280;13818;52.156;5.382;2023-07-16T01:43:05;100523.72;;;18.41;100.00
26043;BME280;13818;52.156;5.382;2023-07-16T01:45:32;100516.97;;;18.35;100.00
26043;BME280;13818;52.156;5.382;2023-07-16T01:48:07;100517.84;;;18.36;100.00
26043;BME280;13818;52.156;5.382;2023-07-16T01:50:39;100520.41;;;18.37;100.00
26043;BME280;13818;52.156;5.382;2023-07-16T01:53:05;100513.44;;;18.35;100.00
26043;BME280;13818;52.156;5.382;2023-07-16T01:55:32;100514.41;;;18.34;100.00
26043;BME280;13818;52.156;5.382;2023-07-16T01:57:58;100523.63;;;18.31;100.00
26043;BME280;13818;52.156;5.382;2023-07-16T02:00:24;100526.59;;;18.28;100.00
26043;BME280;13818;52.156;5.382;2023-07-16T02:02:51;100520.69;;;18.34;100.00
26043;BME280;13818;52.156;5.382;2023-07-16T02:05:19;100522.66;;;18.32;100.00
26043;BME280;13818;52.156;5.382;2023-07-16T02:07:45;100521.44;;;18.25;100.00
26043;BME280;13818;52.156;5.382;2023-07-16T02:10:12;100521.22;;;18.28;100.00
26043;BME280;13818;52.156;5.382;2023-07-16T02:12:38;100520.94;;;18.31;100.00
26043;BME280;13818;52.156;5.382;2023-07-16T02:15:05;100511.88;;;18.32;100.00
26043;BME280;13818;52.156;5.382;2023-07-16T02:17:32;100515.81;;;18.28;100.00
26043;BME280;13818;52.156;5.382;2023-07-16T02:19:58;100517.31;;;18.21;100.00
26043;BME280;13818;52.156;5.382;2023-07-16T02:22:26;100514.09;;;18.27;100.00
26043;BME280;13818;52.156;5.382;2023-07-16T02:24:53;100514.47;;;18.23;100.00
26043;BME280;13818;52.156;5.382;2023-07-16T02:27:19;100522.56;;;18.23;100.00
26043;BME280;13818;52.156;5.382;2023-07-16T02:29:47;100521.72;;;18.22;100.00
26043;BME280;13818;52.156;5.382;2023-07-16T02:32:13;100514.47;;;18.23;100.00
26043;BME280;13818;52.156;5.382;2023-07-16T02:34:40;100526.84;;;18.25;100.00
26043;BME280;13818;52.156;5.382;2023-07-16T02:37:06;100518.16;;;18.21;100.00
26043;BME280;13818;52.156;5.382;2023-07-16T02:39:34;100519.88;;;18.23;100.00
26043;BME280;13818;52.156;5.382;2023-07-16T02:42:00;100520.97;;;18.20;100.00
26043;BME280;13818;52.156;5.382;2023-07-16T02:44:27;100523.81;;;18.18;100.00
26043;BME280;13818;52.156;5.382;2023-07-16T02:46:53;100524.06;;;18.15;100.00
26043;BME280;13818;52.156;5.382;2023-07-16T02:49:22;100523.94;;;18.17;100.00
26043;BME280;13818;52.156;5.382;2023-07-16T02:51:48;100531.28;;;18.15;100.00
26043;BME280;13818;52.156;5.382;2023-07-16T02:54:15;100524.91;;;18.16;100.00
26043;BME280;13818;52.156;5.382;2023-07-16T02:56:42;100522.38;;;18.14;100.00
26043;BME280;13818;52.156;5.382;2023-07-16T02:59:09;100535.34;;;18.09;100.00
26043;BME280;13818;52.156;5.382;2023-07-16T03:01:35;100521.63;;;18.12;100.00
26043;BME280;13818;52.156;5.382;2023-07-16T03:04:02;100527.84;;;18.13;100.00
26043;BME280;13818;52.156;5.382;2023-07-16T03:06:28;100533.16;;;18.14;100.00
26043;BME280;13818;52.156;5.382;2023-07-16T03:08:55;100538.53;;;18.14;100.00
26043;BME280;13818;52.156;5.382;2023-07-16T03:11:22;100536.47;;;18.07;100.00
26043;BME280;13818;52.156;5.382;2023-07-16T03:13:49;100532.66;;;18.09;100.00
26043;BME280;13818;52.156;5.382;2023-07-16T03:16:16;100538.91;;;18.10;100.00
26043;BME280;13818;52.156;5.382;2023-07-16T03:18:43;100546.03;;;18.11;100.00
26043;BME280;13818;52.156;5.382;2023-07-16T03:21:10;100538.91;;;18.10;100.00
26043;BME280;13818;52.156;5.382;2023-07-16T03:23:36;100539.88;;;18.09;100.00
26043;BME280;13818;52.156;5.382;2023-07-16T03:26:03;100529.84;;;18.11;100.00
26043;BME280;13818;52.156;5.382;2023-07-16T03:28:30;100531.31;;;18.03;100.00
26043;BME280;13818;52.156;5.382;2023-07-16T03:30:58;100538.69;;;18.01;100.00
26043;BME280;13818;52.156;5.382;2023-07-16T03:33:25;100540.16;;;18.05;100.00
26043;BME280;13818;52.156;5.382;2023-07-16T03:35:51;100536.22;;;18.10;100.00
26043;BME280;13818;52.156;5.382;2023-07-16T03:38:18;100543.44;;;18.09;100.00
26043;BME280;13818;52.156;5.382;2023-07-16T03:40:46;100548.50;;;18.02;100.00
26043;BME280;13818;52.156;5.382;2023-07-16T03:43:13;100543.22;;;18.01;100.00
26043;BME280;13818;52.156;5.382;2023-07-16T03:45:40;100549.84;;;18.08;100.00
26043;BME280;13818;52.156;5.382;2023-07-16T03:48:08;100553.25;;;18.10;100.00
26043;BME280;13818;52.156;5.382;2023-07-16T03:50:34;100561.09;;;18.13;100.00
26043;BME280;13818;52.156;5.382;2023-07-16T03:53:01;100562.06;;;18.12;100.00
26043;BME280;13818;52.156;5.382;2023-07-16T03:55:28;100560.69;;;18.18;100.00
26043;BME280;13818;52.156;5.382;2023-07-16T03:57:54;100564.41;;;18.17;100.00
26043;BME280;13818;52.156;5.382;2023-07-16T04:00:21;100564.13;;;18.20;100.00
26043;BME280;13818;52.156;5.382;2023-07-16T04:02:47;100570.94;;;18.35;100.00
26043;BME280;13818;52.156;5.382;2023-07-16T04:05:15;100568.56;;;18.53;100.00
26043;BME280;13818;52.156;5.382;2023-07-16T04:07:42;100573.63;;;18.68;100.00
26043;BME280;13818;52.156;5.382;2023-07-16T04:10:09;100579.84;;;18.80;100.00
26043;BME280;13818;52.156;5.382;2023-07-16T04:12:35;100583.00;;;18.85;100.00
26043;BME280;13818;52.156;5.382;2023-07-16T04:15:07;100579.72;;;18.81;100.00
26043;BME280;13818;52.156;5.382;2023-07-16T04:17:34;100576.84;;;18.94;100.00
26043;BME280;13818;52.156;5.382;2023-07-16T04:20:00;100593.66;;;19.19;100.00
26043;BME280;13818;52.156;5.382;2023-07-16T04:22:29;100576.25;;;19.43;100.00
26043;BME280;13818;52.156;5.382;2023-07-16T04:24:56;100588.75;;;19.65;100.00
26043;BME280;13818;52.156;5.382;2023-07-16T04:27:23;100583.34;;;19.96;100.00
26043;BME280;13818;52.156;5.382;2023-07-16T04:29:50;100589.50;;;20.37;100.00
26043;BME280;13818;52.156;5.382;2023-07-16T04:32:16;100600.34;;;20.47;100.00
26043;BME280;13818;52.156;5.382;2023-07-16T04:34:43;100599.81;;;20.83;100.00
26043;BME280;13818;52.156;5.382;2023-07-16T04:37:09;100598.50;;;21.06;100.00
26043;BME280;13818;52.156;5.382;2023-07-16T04:39:37;100610.31;;;21.15;100.00
26043;BME280;13818;52.156;5.382;2023-07-16T04:42:04;100611.69;;;21.49;100.00
26043;BME280;13818;52.156;5.382;2023-07-16T04:44:31;100603.56;;;21.86;100.00
26043;BME280;13818;52.156;5.382;2023-07-16T04:46:57;100607.09;;;22.15;100.00
26043;BME280;13818;52.156;5.382;2023-07-16T04:49:24;100618.13;;;22.13;100.00
26043;BME280;13818;52.156;5.382;2023-07-16T04:51:50;100622.22;;;22.17;100.00
26043;BME280;13818;52.156;5.382;2023-07-16T04:54:17;100612.69;;;22.41;100.00
26043;BME280;13818;52.156;5.382;2023-07-16T04:56:44;100624.91;;;22.99;100.00
26043;BME280;13818;52.156;5.382;2023-07-16T04:59:11;100621.38;;;23.43;97.98
26043;BME280;13818;52.156;5.382;2023-07-16T05:01:37;100626.00;;;23.51;96.21
26043;BME280;13818;52.156;5.382;2023-07-16T05:04:04;100625.81;;;23.79;93.89
26043;BME280;13818;52.156;5.382;2023-07-16T05:06:30;100628.97;;;23.92;93.10
26043;BME280;13818;52.156;5.382;2023-07-16T05:08:57;100626.19;;;24.18;90.88
26043;BME280;13818;52.156;5.382;2023-07-16T05:11:24;100616.53;;;24.49;88.72
26043;BME280;13818;52.156;5.382;2023-07-16T05:13:53;100619.84;;;24.69;86.93
26043;BME280;13818;52.156;5.382;2023-07-16T05:16:21;100625.09;;;25.20;83.52
26043;BME280;13818;52.156;5.382;2023-07-16T05:18:47;100624.59;;;25.00;82.97
26043;BME280;13818;52.156;5.382;2023-07-16T05:21:14;100630.03;;;25.16;81.50
26043;BME280;13818;52.156;5.382;2023-07-16T05:23:40;100624.94;;;25.05;80.60
26043;BME280;13818;52.156;5.382;2023-07-16T05:26:07;100637.88;;;25.11;81.00
26043;BME280;13818;52.156;5.382;2023-07-16T05:28:33;100628.84;;;25.27;79.75
26043;BME280;13818;52.156;5.382;2023-07-16T05:31:03;100639.25;;;25.40;78.35
26043;BME280;13818;52.156;5.382;2023-07-16T05:33:29;100648.69;;;25.86;76.23
26043;BME280;13818;52.156;5.382;2023-07-16T05:35:56;100653.03;;;26.03;74.01
26043;BME280;13818;52.156;5.382;2023-07-16T05:38:22;100658.31;;;26.05;74.04
26043;BME280;13818;52.156;5.382;2023-07-16T05:40:49;100657.97;;;26.16;72.46
26043;BME280;13818;52.156;5.382;2023-07-16T05:43:16;100663.13;;;26.03;72.75
26043;BME280;13818;52.156;5.382;2023-07-16T05:45:42;100672.34;;;26.10;72.27
26043;BME280;13818;52.156;5.382;2023-07-16T05:48:10;100673.31;;;26.25;70.55
26043;BME280;13818;52.156;5.382;2023-07-16T05:50:37;100669.00;;;26.31;70.40
26043;BME280;13818;52.156;5.382;2023-07-16T05:53:03;100681.44;;;26.65;69.15
26043;BME280;13818;52.156;5.382;2023-07-16T05:55:29;100690.31;;;26.75;67.42
26043;BME280;13818;52.156;5.382;2023-07-16T05:57:56;100686.06;;;26.64;68.19
26043;BME280;13818;52.156;5.382;2023-07-16T06:00:22;100680.47;;;26.58;68.38
26043;BME280;13818;52.156;5.382;2023-07-16T06:02:49;100674.91;;;26.98;66.58
26043;BME280;13818;52.156;5.382;2023-07-16T06:05:17;100686.44;;;27.31;65.80
26043;BME280;13818;52.156;5.382;2023-07-16T06:07:44;100676.94;;;27.42;64.71
26043;BME280;13818;52.156;5.382;2023-07-16T06:10:10;100669.16;;;27.84;63.45
26043;BME280;13818;52.156;5.382;2023-07-16T06:12:37;100673.94;;;27.52;63.96
26043;BME280;13818;52.156;5.382;2023-07-16T06:15:04;100684.81;;;27.90;62.93
26043;BME280;13818;52.156;5.382;2023-07-16T06:17:31;100694.09;;;28.04;61.06
26043;BME280;13818;52.156;5.382;2023-07-16T06:19:57;100693.38;;;28.47;60.75
26043;BME280;13818;52.156;5.382;2023-07-16T06:22:25;100688.66;;;28.40;59.75
26043;BME280;13818;52.156;5.382;2023-07-16T06:24:51;100688.53;;;28.79;58.59
26043;BME280;13818;52.156;5.382;2023-07-16T06:27:18;100689.50;;;28.71;58.85
26043;BME280;13818;52.156;5.382;2023-07-16T06:29:44;100694.97;;;28.71;58.99
26043;BME280;13818;52.156;5.382;2023-07-16T06:32:11;100684.44;;;28.74;58.70
26043;BME280;13818;52.156;5.382;2023-07-16T06:34:37;100710.09;;;28.67;58.63
26043;BME280;13818;52.156;5.382;2023-07-16T06:37:04;100690.91;;;28.88;57.64
26043;BME280;13818;52.156;5.382;2023-07-16T06:39:32;100691.97;;;28.87;58.51
26043;BME280;13818;52.156;5.382;2023-07-16T06:41:58;100700.53;;;28.63;58.12
26043;BME280;13818;52.156;5.382;2023-07-16T06:44:25;100696.59;;;28.87;57.40
26043;BME280;13818;52.156;5.382;2023-07-16T06:46:51;100691.97;;;29.31;56.57
26043;BME280;13818;52.156;5.382;2023-07-16T06:49:18;100697.16;;;29.47;55.56
26043;BME280;13818;52.156;5.382;2023-07-16T06:51:44;100709.50;;;29.58;55.16
26043;BME280;13818;52.156;5.382;2023-07-16T06:54:11;100713.19;;;29.00;57.08
26043;BME280;13818;52.156;5.382;2023-07-16T06:56:39;100716.16;;;29.70;54.82
26043;BME280;13818;52.156;5.382;2023-07-16T06:59:05;100713.69;;;29.54;54.93
26043;BME280;13818;52.156;5.382;2023-07-16T07:01:32;100716.34;;;29.69;55.15
26043;BME280;13818;52.156;5.382;2023-07-16T07:03:59;100711.75;;;29.48;55.42
26043;BME280;13818;52.156;5.382;2023-07-16T07:06:26;100730.81;;;29.56;54.86
26043;BME280;13818;52.156;5.382;2023-07-16T07:08:52;100728.56;;;29.16;55.81
26043;BME280;13818;52.156;5.382;2023-07-16T07:11:19;100742.22;;;29.53;55.07
26043;BME280;13818;52.156;5.382;2023-07-16T07:13:46;100745.28;;;29.71;54.51
26043;BME280;13818;52.156;5.382;2023-07-16T07:16:13;100747.72;;;29.88;53.30
26043;BME280;13818;52.156;5.382;2023-07-16T07:18:39;100751.16;;;29.40;55.11
26043;BME280;13818;52.156;5.382;2023-07-16T07:21:07;100740.84;;;28.47;57.11
26043;BME280;13818;52.156;5.382;2023-07-16T07:23:34;100750.69;;;27.43;60.64
26043;BME280;13818;52.156;5.382;2023-07-16T07:26:00;100751.56;;;26.89;64.88
26043;BME280;13818;52.156;5.382;2023-07-16T07:28:27;100744.09;;;27.06;65.88
26043;BME280;13818;52.156;5.382;2023-07-16T07:30:55;100759.50;;;26.76;66.65
26043;BME280;13818;52.156;5.382;2023-07-16T07:33:21;100754.63;;;26.86;67.90
26043;BME280;13818;52.156;5.382;2023-07-16T07:35:47;100759.38;;;26.92;67.71
26043;BME280;13818;52.156;5.382;2023-07-16T07:38:14;100755.72;;;26.77;69.00
26043;BME280;13818;52.156;5.382;2023-07-16T07:40:42;100764.50;;;26.56;69.90
26043;BME280;13818;52.156;5.382;2023-07-16T07:43:08;100766.28;;;26.80;70.74
26043;BME280;13818;52.156;5.382;2023-07-16T07:45:35;100755.75;;;27.85;66.91
26043;BME280;13818;52.156;5.382;2023-07-16T07:48:03;100758.63;;;28.36;63.52
26043;BME280;13818;52.156;5.382;2023-07-16T07:50:30;100767.22;;;28.48;62.30
26043;BME280;13818;52.156;5.382;2023-07-16T07:52:56;100774.09;;;27.61;65.12
26043;BME280;13818;52.156;5.382;2023-07-16T07:55:23;100784.03;;;26.36;70.05
26043;BME280;13818;52.156;5.382;2023-07-16T07:57:49;100784.88;;;25.72;72.36
26043;BME280;13818;52.156;5.382;2023-07-16T08:00:16;100785.84;;;25.22;77.83
26043;BME280;13818;52.156;5.382;2023-07-16T08:02:44;100785.75;;;24.80;81.73
26043;BME280;13818;52.156;5.382;2023-07-16T08:05:13;100783.69;;;24.40;85.85
26043;BME280;13818;52.156;5.382;2023-07-16T08:07:40;100785.44;;;24.49;86.66
26043;BME280;13818;52.156;5.382;2023-07-16T08:10:07;100782.47;;;24.34;86.88
26043;BME280;13818;52.156;5.382;2023-07-16T08:12:33;100788.13;;;24.83;84.95
26043;BME280;13818;52.156;5.382;2023-07-16T08:15:00;100787.84;;;25.03;83.97
26043;BME280;13818;52.156;5.382;2023-07-16T08:17:26;100781.63;;;25.44;83.24
26043;BME280;13818;52.156;5.382;2023-07-16T08:19:53;100795.75;;;25.89;80.68
26043;BME280;13818;52.156;5.382;2023-07-16T08:22:21;100798.78;;;26.27;78.18
26043;BME280;13818;52.156;5.382;2023-07-16T08:24:49;100805.44;;;26.16;78.47
26043;BME280;13818;52.156;5.382;2023-07-16T08:27:16;100799.00;;;25.84;78.93
26043;BME280;13818;52.156;5.382;2023-07-16T08:29:44;100787.94;;;25.61;80.57
26043;BME280;13818;52.156;5.382;2023-07-16T08:32:10;100796.03;;;26.35;76.85
26043;BME280;13818;52.156;5.382;2023-07-16T08:34:37;100798.66;;;26.60;74.95
26043;BME280;13818;52.156;5.382;2023-07-16T08:37:04;100808.50;;;26.29;76.30
26043;BME280;13818;52.156;5.382;2023-07-16T08:39:32;100800.81;;;26.25;77.99
26043;BME280;13818;52.156;5.382;2023-07-16T08:41:58;100808.53;;;25.96;78.96
26043;BME280;13818;52.156;5.382;2023-07-16T08:44:26;100810.09;;;25.82;80.60
26043;BME280;13818;52.156;5.382;2023-07-16T08:46:53;100812.28;;;25.29;82.79
26043;BME280;13818;52.156;5.382;2023-07-16T08:49:20;100819.47;;;24.45;87.95
26043;BME280;13818;52.156;5.382;2023-07-16T08:51:48;100821.91;;;24.56;93.26
26043;BME280;13818;52.156;5.382;2023-07-16T08:54:15;100820.72;;;24.59;90.93
26043;BME280;13818;52.156;5.382;2023-07-16T08:56:44;100819.28;;;24.73;89.81
26043;BME280;13818;52.156;5.382;2023-07-16T08:59:12;100826.81;;;24.87;89.55
26043;BME280;13818;52.156;5.382;2023-07-16T09:01:39;100812.66;;;24.83;89.92
26043;BME280;13818;52.156;5.382;2023-07-16T09:04:06;100833.44;;;24.84;88.00
26043;BME280;13818;52.156;5.382;2023-07-16T09:06:33;100827.47;;;24.73;89.15
26043;BME280;13818;52.156;5.382;2023-07-16T09:08:59;100830.19;;;24.73;89.92
26043;BME280;13818;52.156;5.382;2023-07-16T09:11:26;100835.66;;;24.54;90.76
26043;BME280;13818;52.156;5.382;2023-07-16T09:13:54;100846.78;;;24.96;89.42
26043;BME280;13818;52.156;5.382;2023-07-16T09:16:20;100830.41;;;24.88;89.83
26043;BME280;13818;52.156;5.382;2023-07-16T09:18:47;100839.31;;;25.06;87.99
26043;BME280;13818;52.156;5.382;2023-07-16T09:21:13;100836.25;;;25.17;87.62
26043;BME280;13818;52.156;5.382;2023-07-16T09:23:41;100854.16;;;25.12;89.69
26043;BME280;13818;52.156;5.382;2023-07-16T09:26:08;100847.97;;;24.93;88.33
26043;BME280;13818;52.156;5.382;2023-07-16T09:28:35;100854.66;;;24.64;90.16
26043;BME280;13818;52.156;5.382;2023-07-16T09:31:06;100852.69;;;24.22;92.86
26043;BME280;13818;52.156;5.382;2023-07-16T09:33:34;100861.72;;;24.23;93.22
26043;BME280;13818;52.156;5.382;2023-07-16T09:36:00;100855.56;;;23.94;95.20
26043;BME280;13818;52.156;5.382;2023-07-16T09:38:28;100844.38;;;23.79;95.62
26043;BME280;13818;52.156;5.382;2023-07-16T09:40:55;100863.00;;;24.10;94.70
26043;BME280;13818;52.156;5.382;2023-07-16T09:43:22;100855.56;;;24.20;92.79
26043;BME280;13818;52.156;5.382;2023-07-16T09:45:49;100858.88;;;23.88;95.21
26043;BME280;13818;52.156;5.382;2023-07-16T09:48:16;100858.34;;;23.84;94.91
26043;BME280;13818;52.156;5.382;2023-07-16T09:50:47;100852.69;;;23.96;95.91
26043;BME280;13818;52.156;5.382;2023-07-16T09:53:15;100868.84;;;23.79;96.39
26043;BME280;13818;52.156;5.382;2023-07-16T09:55:45;100864.34;;;23.70;96.89
26043;BME280;13818;52.156;5.382;2023-07-16T09:58:13;100874.44;;;23.78;97.36
26043;BME280;13818;52.156;5.382;2023-07-16T10:00:40;100871.25;;;24.00;96.62
26043;BME280;13818;52.156;5.382;2023-07-16T10:03:08;100870.53;;;23.80;97.61
26043;BME280;13818;52.156;5.382;2023-07-16T10:05:37;100871.78;;;23.86;97.57
26043;BME280;13818;52.156;5.382;2023-07-16T10:08:04;100872.97;;;23.65;98.04
26043;BME280;13818;52.156;5.382;2023-07-16T10:10:38;100886.28;;;23.50;99.93
26043;BME280;13818;52.156;5.382;2023-07-16T10:13:06;100878.56;;;23.64;100.00
26043;BME280;13818;52.156;5.382;2023-07-16T10:15:33;100887.53;;;23.74;99.02
26043;BME280;13818;52.156;5.382;2023-07-16T10:17:59;100891.56;;;23.88;99.45
26043;BME280;13818;52.156;5.382;2023-07-16T10:20:30;100887.91;;;23.97;99.66
26043;BME280;13818;52.156;5.382;2023-07-16T10:22:59;100885.16;;;24.42;97.53
26043;BME280;13818;52.156;5.382;2023-07-16T10:25:36;100902.78;;;24.56;96.43
26043;BME280;13818;52.156;5.382;2023-07-16T10:28:02;100887.41;;;24.46;94.01
26043;BME280;13818;52.156;5.382;2023-07-16T10:30:30;100901.06;;;24.02;96.10
26043;BME280;13818;52.156;5.382;2023-07-16T10:32:56;100905.94;;;23.62;99.25
26043;BME280;13818;52.156;5.382;2023-07-16T10:35:23;100908.31;;;23.47;100.00
26043;BME280;13818;52.156;5.382;2023-07-16T10:37:50;100912.13;;;23.36;100.00
26043;BME280;13818;52.156;5.382;2023-07-16T10:40:17;100915.81;;;23.17;100.00
26043;BME280;13818;52.156;5.382;2023-07-16T10:42:45;100926.03;;;23.33;100.00
26043;BME280;13818;52.156;5.382;2023-07-16T10:45:12;100921.28;;;23.35;100.00
26043;BME280;13818;52.156;5.382;2023-07-16T10:47:49;100918.91;;;23.50;100.00
26043;BME280;13818;52.156;5.382;2023-07-16T10:50:16;100920.41;;;23.63;100.00
26043;BME280;13818;52.156;5.382;2023-07-16T10:52:45;100924.34;;;23.86;100.00
26043;BME280;13818;52.156;5.382;2023-07-16T10:55:11;100917.91;;;23.87;100.00
26043;BME280;13818;52.156;5.382;2023-07-16T10:57:39;100923.50;;;23.86;99.64
26043;BME280;13818;52.156;5.382;2023-07-16T11:00:10;100924.28;;;23.96;98.46
26043;BME280;13818;52.156;5.382;2023-07-16T11:02:39;100927.38;;;23.83;98.69
26043;BME280;13818;52.156;5.382;2023-07-16T11:05:09;100931.28;;;23.81;99.13
26043;BME280;13818;52.156;5.382;2023-07-16T11:07:36;100930.19;;;23.92;98.90
26043;BME280;13818;52.156;5.382;2023-07-16T11:10:03;100916.06;;;24.06;98.89
26043;BME280;13818;52.156;5.382;2023-07-16T11:12:30;100948.88;;;24.04;100.00
26043;BME280;13818;52.156;5.382;2023-07-16T11:14:58;100925.69;;;24.00;98.42
26043;BME280;13818;52.156;5.382;2023-07-16T11:17:24;100935.34;;;23.95;99.42
26043;BME280;13818;52.156;5.382;2023-07-16T11:19:52;100934.94;;;23.89;97.27
26043;BME280;13818;52.156;5.382;2023-07-16T11:22:19;100948.88;;;24.04;97.38
26043;BME280;13818;52.156;5.382;2023-07-16T11:24:47;100952.44;;;23.87;99.19
26043;BME280;13818;52.156;5.382;2023-07-16T11:27:15;100939.63;;;23.97;100.00
26043;BME280;13818;52.156;5.382;2023-07-16T11:29:46;100952.91;;;24.00;99.26
26043;BME280;13818;52.156;5.382;2023-07-16T11:32:25;100948.00;;;24.04;100.00
26043;BME280;13818;52.156;5.382;2023-07-16T11:34:53;100947.31;;;24.20;100.00
26043;BME280;13818;52.156;5.382;2023-07-16T11:37:19;100965.19;;;24.23;100.00
26043;BME280;13818;52.156;5.382;2023-07-16T11:39:47;100964.88;;;24.08;99.95
26043;BME280;13818;52.156;5.382;2023-07-16T11:42:13;100954.06;;;23.98;100.00
26043;BME280;13818;52.156;5.382;2023-07-16T11:44:40;100960.41;;;23.98;100.00
26043;BME280;13818;52.156;5.382;2023-07-16T11:47:07;100950.06;;;24.02;99.44
26043;BME280;13818;52.156;5.382;2023-07-16T11:49:35;100968.28;;;24.28;97.93
26043;BME280;13818;52.156;5.382;2023-07-16T11:52:01;100965.81;;;24.16;96.39
26043;BME280;13818;52.156;5.382;2023-07-16T11:54:29;100963.41;;;24.31;93.32
26043;BME280;13818;52.156;5.382;2023-07-16T11:56:55;100973.03;;;24.26;92.08
26043;BME280;13818;52.156;5.382;2023-07-16T11:59:21;100979.16;;;24.46;91.60
26043;BME280;13818;52.156;5.382;2023-07-16T12:01:48;100978.69;;;24.50;89.20
26043;BME280;13818;52.156;5.382;2023-07-16T12:04:16;100987.81;;;24.41;86.71
26043;BME280;13818;52.156;5.382;2023-07-16T12:06:44;100985.66;;;24.27;85.91
26043;BME280;13818;52.156;5.382;2023-07-16T12:09:10;100985.78;;;24.43;86.25
26043;BME280;13818;52.156;5.382;2023-07-16T12:11:37;100975.03;;;24.42;84.99
26043;BME280;13818;52.156;5.382;2023-07-16T12:14:04;100981.72;;;24.65;84.76
26043;BME280;13818;52.156;5.382;2023-07-16T12:16:30;100980.94;;;24.37;86.96
26043;BME280;13818;52.156;5.382;2023-07-16T12:18:57;100969.78;;;24.04;86.53
26043;BME280;13818;52.156;5.382;2023-07-16T12:21:23;100987.63;;;23.98;87.30
26043;BME280;13818;52.156;5.382;2023-07-16T12:23:51;100987.91;;;23.95;86.90
26043;BME280;13818;52.156;5.382;2023-07-16T12:26:18;100985.56;;;24.00;87.56
26043;BME280;13818;52.156;5.382;2023-07-16T12:28:44;100981.28;;;23.98;87.62
26043;BME280;13818;52.156;5.382;2023-07-16T12:31:11;100985.50;;;23.92;86.85
26043;BME280;13818;52.156;5.382;2023-07-16T12:33:37;100995.63;;;24.00;86.39
26043;BME280;13818;52.156;5.382;2023-07-16T12:36:04;101004.94;;;23.97;87.33
26043;BME280;13818;52.156;5.382;2023-07-16T12:38:30;101004.16;;;23.87;87.78
26043;BME280;13818;52.156;5.382;2023-07-16T12:40:58;101001.06;;;24.00;89.08
26043;BME280;13818;52.156;5.382;2023-07-16T12:43:25;100998.34;;;24.00;87.40
26043;BME280;13818;52.156;5.382;2023-07-16T12:45:51;101001.16;;;24.08;89.98